Time;durP1;ratioP1;P1;durP2;ratioP2;P2;SDS_P1;SDS_P2;PMS_P1;PMS_P2;Temp;Humidity;BMP_temperature;BMP_pressure;BME280_temperature;BME280_humidity;BME280_pressure;Samples;Min_cycle;Max_cycle;Signal;HPM_P1;HPM_P2
2022/03/05 00:01:10;;;;;;;6.90;5.13;;;;;;;2.34;61.85;102181.41;5001406;28;20183;-65
2022/03/05 00:03:36;;;;;;;7.47;5.43;;;;;;;1.94;62.85;102186.47;5001431;28;20182;-65
2022/03/05 00:06:01;;;;;;;7.10;5.80;;;;;;;2.14;63.21;102182.69;5001825;28;20180;-64
2022/03/05 00:08:26;;;;;;;7.43;5.23;;;;;;;2.78;61.73;102169.69;5001053;28;20227;-66
2022/03/05 00:10:52;;;;;;;6.93;5.10;;;;;;;2.53;62.02;102180.97;5001454;28;20569;-65
2022/03/05 00:13:17;;;;;;;8.93;6.03;;;;;;;2.36;62.12;102174.69;5002294;28;20168;-67
2022/03/05 00:15:43;;;;;;;6.53;5.10;;;;;;;1.90;63.30;102181.91;5001310;28;20441;-67
2022/03/05 00:18:08;;;;;;;9.17;5.90;;;;;;;2.15;63.20;102181.88;4984195;28;20179;-66
2022/03/05 00:20:34;;;;;;;7.13;5.13;;;;;;;2.63;61.38;102174.72;4984574;28;20168;-65
2022/03/05 00:22:59;;;;;;;5.90;4.93;;;;;;;2.61;61.44;102178.88;5001141;28;20207;-68
2022/03/05 00:25:25;;;;;;;7.47;5.70;;;;;;;2.24;61.99;102176.47;5001031;28;20266;-66
2022/03/05 00:27:51;;;;;;;6.07;5.10;;;;;;;2.32;62.52;102172.72;5000620;28;20168;-65
2022/03/05 00:30:16;;;;;;;6.03;5.03;;;;;;;1.83;62.05;102173.75;5000938;28;20187;-65
2022/03/05 00:32:42;;;;;;;7.37;5.13;;;;;;;2.00;62.49;102180.06;5001105;28;20419;-65
2022/03/05 00:35:08;;;;;;;6.93;5.20;;;;;;;2.22;62.46;102181.50;5001215;28;20175;-65
2022/03/05 00:37:33;;;;;;;7.60;5.37;;;;;;;1.90;62.48;102171.63;5000670;28;20258;-65
2022/03/05 00:39:58;;;;;;;5.83;5.20;;;;;;;2.12;62.65;102174.84;4984061;28;20186;-66
2022/03/05 00:42:24;;;;;;;8.80;5.60;;;;;;;2.60;60.91;102169.38;5001216;28;20191;-66
2022/03/05 00:44:49;;;;;;;7.73;5.53;;;;;;;2.49;61.21;102173.81;5000762;28;20509;-65
2022/03/05 00:47:15;;;;;;;7.03;6.13;;;;;;;2.75;61.21;102169.47;5000599;28;20182;-67
2022/03/05 00:49:40;;;;;;;8.73;5.63;;;;;;;2.15;61.37;102175.06;5001043;28;20201;-65
2022/03/05 00:52:06;;;;;;;7.17;5.90;;;;;;;2.10;62.29;102180.69;4983584;28;20274;-66
2022/03/05 00:54:31;;;;;;;9.37;5.90;;;;;;;2.18;62.60;102175.25;5000597;28;20527;-65
2022/03/05 00:56:57;;;;;;;6.80;5.27;;;;;;;2.18;62.54;102179.53;4990770;28;20184;-65
2022/03/05 00:59:22;;;;;;;11.80;5.70;;;;;;;2.21;62.62;102178.84;4980870;28;20180;-66
2022/03/05 01:01:47;;;;;;;5.93;4.83;;;;;;;2.56;61.24;102173.44;4980934;28;20461;-66
2022/03/05 01:04:13;;;;;;;6.87;5.10;;;;;;;2.32;61.23;102173.59;4981342;28;20228;-67
2022/03/05 01:06:38;;;;;;;6.87;5.07;;;;;;;2.47;61.54;102173.72;4980816;28;20255;-67
2022/03/05 01:09:04;;;;;;;9.30;5.40;;;;;;;1.95;62.28;102175.38;4979619;28;20598;-64
2022/03/05 01:11:30;;;;;;;5.50;4.87;;;;;;;2.48;61.38;102169.47;4981218;28;20558;-66
2022/03/05 01:13:55;;;;;;;7.20;5.10;;;;;;;2.17;60.75;102170.00;4979991;28;20430;-65
2022/03/05 01:16:21;;;;;;;7.10;4.93;;;;;;;2.64;61.30;102163.66;4980904;28;20257;-64
2022/03/05 01:18:46;;;;;;;7.10;5.43;;;;;;;2.66;60.97;102160.34;4980661;28;20202;-65
2022/03/05 01:21:11;;;;;;;8.10;5.23;;;;;;;2.18;61.23;102164.09;4980600;28;20187;-65
2022/03/05 01:23:37;;;;;;;6.37;4.70;;;;;;;1.57;62.50;102174.56;4980732;28;20178;-66
2022/03/05 01:26:03;;;;;;;5.57;4.77;;;;;;;1.92;62.74;102172.59;4981128;28;20526;-66
2022/03/05 01:28:28;;;;;;;9.53;5.10;;;;;;;1.70;63.10;102172.81;4980291;28;20180;-66
2022/03/05 01:30:54;;;;;;;4.83;4.30;;;;;;;8.24;73.38;102150.25;4982536;28;20215;-53
2022/03/05 01:33:19;;;;;;;6.70;5.23;;;;;;;5.25;58.36;102155.84;4999053;28;20452;-67
2022/03/05 01:35:45;;;;;;;7.10;5.33;;;;;;;2.95;59.10;102166.50;4999829;28;20254;-68
2022/03/05 01:38:10;;;;;;;5.73;4.20;;;;;;;2.67;59.81;102167.28;4999685;28;20648;-67
2022/03/05 01:40:36;;;;;;;7.40;5.27;;;;;;;2.65;60.23;102168.91;4999355;28;20164;-66
2022/03/05 01:43:01;;;;;;;5.30;4.80;;;;;;;2.79;59.80;102171.47;5000191;28;20258;-66
2022/03/05 01:45:27;;;;;;;6.13;4.87;;;;;;;1.71;62.57;102170.34;4999811;28;20188;-67
2022/03/05 01:47:52;;;;;;;5.13;4.30;;;;;;;1.45;62.02;102174.59;4999841;28;20179;-66
2022/03/05 01:50:18;;;;;;;6.67;5.30;;;;;;;1.38;64.34;102169.81;4999608;28;20171;-67
2022/03/05 01:52:43;;;;;;;7.80;5.07;;;;;;;1.67;63.13;102169.25;4999580;28;20176;-68
2022/03/05 01:55:11;;;;;;;7.93;5.13;;;;;;;1.68;64.17;102170.16;4999904;28;20518;-67
2022/03/05 01:57:36;;;;;;;9.23;5.30;;;;;;;1.37;63.48;102173.16;4982415;28;20448;-67
2022/03/05 02:00:04;;;;;;;6.27;5.17;;;;;;;1.74;63.71;102172.25;4999303;28;20418;-68
2022/03/05 02:02:29;;;;;;;6.63;5.10;;;;;;;1.45;63.62;102173.72;4999707;28;20246;-67
2022/03/05 02:04:55;;;;;;;12.07;5.40;;;;;;;2.07;62.41;102173.66;4999373;28;20804;-68
2022/03/05 02:07:20;;;;;;;5.63;5.00;;;;;;;2.19;61.09;102171.91;4998873;28;20353;-66
2022/03/05 02:09:45;;;;;;;9.00;5.43;;;;;;;1.84;62.01;102164.34;4999626;28;20175;-67
2022/03/05 02:12:10;;;;;;;9.00;7.37;;;;;;;1.59;62.34;102167.81;4999113;28;20211;-67
2022/03/05 02:14:36;;;;;;;12.07;9.60;;;;;;;1.27;63.20;102171.63;4998958;28;20541;-67
2022/03/05 02:17:02;;;;;;;15.80;11.47;;;;;;;1.48;63.62;102161.94;4999585;28;20184;-67
2022/03/05 02:19:28;;;;;;;21.73;13.50;;;;;;;1.55;63.96;102160.69;4999093;28;20167;-67
2022/03/05 02:21:53;;;;;;;21.63;15.13;;;;;;;0.74;65.13;102166.97;4998896;28;20419;-67
2022/03/05 02:24:31;;;;;;;20.17;15.43;;;;;;;1.43;64.78;102162.41;4999472;28;20549;-67
2022/03/05 02:26:58;;;;;;;19.47;15.07;;;;;;;1.65;63.33;102149.34;4983840;28;20428;-67
2022/03/05 02:29:23;;;;;;;19.37;13.77;;;;;;;1.67;63.94;102148.69;4998534;28;20423;-67
2022/03/05 02:31:49;;;;;;;15.80;11.70;;;;;;;1.73;63.03;102152.47;4998732;28;20474;-66
2022/03/05 02:34:14;;;;;;;18.67;11.20;;;;;;;1.57;63.23;102150.50;4982018;28;20448;-68
2022/03/05 02:36:39;;;;;;;12.60;8.70;;;;;;;1.36;64.26;102152.50;4999403;28;20428;-66
2022/03/05 02:39:04;;;;;;;10.20;7.70;;;;;;;2.06;62.67;102147.81;4998552;28;20217;-66
2022/03/05 02:41:30;;;;;;;15.13;8.63;;;;;;;1.83;62.63;102153.19;4998865;28;20163;-67
2022/03/05 02:43:55;;;;;;;10.83;7.70;;;;;;;1.62;63.98;102147.47;4998949;28;20203;-66
2022/03/05 02:46:25;;;;;;;9.67;6.33;;;;;;;1.71;63.27;102151.47;4998793;28;20171;-66
2022/03/05 02:48:50;;;;;;;8.10;6.30;;;;;;;1.56;64.15;102141.91;4998522;28;20498;-68
2022/03/05 02:51:15;;;;;;;10.80;6.17;;;;;;;1.20;64.15;102146.28;4998786;28;20446;-68
2022/03/05 02:53:41;;;;;;;7.77;6.00;;;;;;;1.29;64.81;102154.63;4998631;28;20226;-67
2022/03/05 02:56:06;;;;;;;6.37;5.30;;;;;;;0.81;65.44;102158.06;4998525;28;20451;-67
2022/03/05 02:58:31;;;;;;;8.40;5.90;;;;;;;1.00;65.53;102161.19;4981978;28;20178;-68
2022/03/05 03:00:57;;;;;;;7.43;5.47;;;;;;;0.54;66.18;102162.97;4998560;28;20172;-66
2022/03/05 03:03:22;;;;;;;9.70;5.40;;;;;;;0.92;66.17;102158.81;4998387;28;20179;-66
2022/03/05 03:05:48;;;;;;;5.37;4.87;;;;;;;0.71;66.59;102163.31;4998854;28;20167;-67
2022/03/05 03:08:13;;;;;;;7.47;5.10;;;;;;;1.07;66.03;102153.88;4998245;28;20227;-67
2022/03/05 03:10:38;;;;;;;9.70;5.60;;;;;;;1.05;66.87;102160.59;4998461;28;20218;-66
2022/03/05 03:13:04;;;;;;;8.97;5.13;;;;;;;1.56;64.53;102154.78;4998858;28;20167;-66
2022/03/05 03:15:29;;;;;;;5.23;4.60;;;;;;;1.08;65.92;102163.38;4998695;28;20180;-66
2022/03/05 03:17:54;;;;;;;7.30;4.70;;;;;;;0.95;65.72;102164.19;4998331;28;20183;-67
2022/03/05 03:20:24;;;;;;;6.37;5.20;;;;;;;1.44;65.09;102162.50;4999183;28;20306;-68
2022/03/05 03:22:50;;;;;;;9.00;4.70;;;;;;;1.47;65.23;102165.28;4998544;28;20433;-66
2022/03/05 03:25:15;;;;;;;8.97;5.63;;;;;;;1.36;65.18;102155.06;4998490;28;20415;-66
2022/03/05 03:27:41;;;;;;;9.03;5.10;;;;;;;1.33;64.93;102160.88;4998435;28;20186;-66
2022/03/05 03:30:08;;;;;;;5.83;5.10;;;;;;;1.67;64.30;102158.97;4998566;28;20178;-66
2022/03/05 03:32:34;;;;;;;5.20;4.70;;;;;;;1.81;63.95;102162.50;4998323;28;20211;-66
2022/03/05 03:34:59;;;;;;;8.20;4.43;;;;;;;1.67;64.33;102163.22;4999174;28;20418;-66
2022/03/05 03:37:28;;;;;;;8.00;4.83;;;;;;;1.08;65.86;102161.69;4998450;28;20168;-66
2022/03/05 03:39:55;;;;;;;7.43;4.87;;;;;;;0.70;66.37;102174.38;4998456;28;20187;-67
2022/03/05 03:42:21;;;;;;;5.90;4.80;;;;;;;0.88;66.92;102172.22;4998638;28;20465;-67
2022/03/05 03:44:46;;;;;;;6.00;4.63;;;;;;;0.63;67.22;102168.75;4998408;28;20753;-68
2022/03/05 03:47:11;;;;;;;6.07;4.70;;;;;;;0.90;67.75;102160.41;4998199;28;20171;-66
2022/03/05 03:49:37;;;;;;;6.60;4.60;;;;;;;0.75;67.60;102168.78;4998885;28;20203;-67
2022/03/05 03:52:03;;;;;;;5.70;4.50;;;;;;;0.74;68.01;102166.09;4998350;28;20204;-67
2022/03/05 03:54:28;;;;;;;5.47;4.80;;;;;;;1.27;67.56;102158.78;4998222;28;20472;-66
2022/03/05 03:56:53;;;;;;;8.90;5.00;;;;;;;0.86;67.02;102172.13;4999025;28;20183;-66
2022/03/05 03:59:19;;;;;;;7.20;4.67;;;;;;;1.48;65.68;102163.63;4998097;28;20191;-66
2022/03/05 04:01:44;;;;;;;7.80;5.63;;;;;;;1.34;66.93;102162.69;4981429;28;20190;-66
2022/03/05 04:04:09;;;;;;;5.47;4.87;;;;;;;1.64;65.50;102161.31;5001688;28;20561;-66
2022/03/05 04:09:18;;;;;;;4.83;4.30;;;;;;;1.43;66.80;102158.16;5001360;28;20285;-66
2022/03/05 04:11:44;;;;;;;7.27;4.60;;;;;;;1.38;66.30;102156.97;5001503;28;20542;-66
2022/03/05 04:14:09;;;;;;;8.60;4.63;;;;;;;1.63;65.96;102153.50;5001531;28;20533;-66
2022/03/05 04:16:34;;;;;;;5.40;4.90;;;;;;;0.93;67.66;102168.31;5002201;28;20421;-67
2022/03/05 04:19:00;;;;;;;6.20;5.50;;;;;;;0.79;68.04;102164.78;5001457;28;20381;-66
2022/03/05 04:21:25;;;;;;;6.37;5.00;;;;;;;1.33;67.63;102161.75;5001484;28;20179;-65
2022/03/05 04:23:50;;;;;;;6.77;5.53;;;;;;;1.56;66.73;102165.06;5002238;28;20572;-67
2022/03/05 04:26:16;;;;;;;8.40;5.03;;;;;;;1.31;66.53;102165.91;5001217;28;20279;-65
2022/03/05 04:28:41;;;;;;;5.70;4.90;;;;;;;1.28;66.65;102165.69;5001136;28;20212;-66
2022/03/05 04:31:06;;;;;;;6.50;5.53;;;;;;;1.29;67.12;102162.34;5001191;28;20231;-66
2022/03/05 04:33:32;;;;;;;6.57;4.80;;;;;;;1.37;67.64;102167.09;5000927;28;20186;-66
2022/03/05 04:35:58;;;;;;;7.83;5.60;;;;;;;0.89;68.98;102166.31;5001144;28;20494;-66
2022/03/05 04:38:23;;;;;;;6.83;5.33;;;;;;;0.99;69.36;102172.22;5001218;28;20254;-67
2022/03/05 04:40:48;;;;;;;7.73;5.10;;;;;;;1.14;68.52;102168.97;5001095;28;20167;-66
2022/03/05 04:43:14;;;;;;;7.67;5.73;;;;;;;1.43;67.10;102163.28;5000876;28;20199;-66
2022/03/05 04:45:40;;;;;;;7.70;5.53;;;;;;;1.36;67.03;102161.09;5001676;28;20522;-67
2022/03/05 04:48:05;;;;;;;7.63;5.70;;;;;;;1.35;67.96;102161.88;5000854;28;20179;-68
2022/03/05 04:50:31;;;;;;;6.00;4.80;;;;;;;1.33;68.35;102164.34;4983940;28;20708;-66
2022/03/05 04:52:56;;;;;;;9.10;5.73;;;;;;;0.33;69.62;102173.44;5001092;28;20529;-66
2022/03/05 04:55:21;;;;;;;7.07;5.57;;;;;;;1.29;69.37;102171.72;5000994;28;20187;-66
2022/03/05 04:57:47;;;;;;;8.10;5.20;;;;;;;0.76;69.81;102172.22;5000802;28;20576;-66
2022/03/05 05:00:12;;;;;;;6.50;5.77;;;;;;;0.04;72.38;102172.91;5001155;28;20172;-65
2022/03/05 05:02:38;;;;;;;7.80;5.97;;;;;;;0.92;70.92;102175.16;5000398;28;20180;-66
2022/03/05 05:05:05;;;;;;;5.87;5.00;;;;;;;1.12;70.53;102176.56;5000349;28;20481;-66
2022/03/05 05:07:30;;;;;;;9.00;7.13;;;;;;;1.19;70.11;102172.72;5000540;28;20656;-65
2022/03/05 05:09:56;;;;;;;7.30;5.40;;;;;;;0.50;71.76;102174.69;5000465;28;20422;-66
2022/03/05 05:12:22;;;;;;;6.23;5.37;;;;;;;1.07;70.67;102177.00;5000271;28;20246;-66
2022/03/05 05:14:48;;;;;;;5.80;5.13;;;;;;;1.19;69.13;102170.16;5000264;28;20194;-66
2022/03/05 05:17:13;;;;;;;6.23;5.20;;;;;;;1.06;69.86;102171.00;5000159;28;20419;-66
2022/03/05 05:19:38;;;;;;;8.43;5.97;;;;;;;0.95;70.52;102179.63;5000858;28;20198;-65
2022/03/05 05:22:06;;;;;;;6.87;6.17;;;;;;;1.20;70.18;102179.66;5000032;28;20183;-66
2022/03/05 05:24:33;;;;;;;7.43;6.20;;;;;;;0.66;70.69;102181.84;5000605;28;20206;-66
2022/03/05 05:26:59;;;;;;;6.80;5.27;;;;;;;0.86;70.84;102179.81;5000530;28;20823;-66
2022/03/05 05:29:25;;;;;;;6.60;5.90;;;;;;;1.07;71.46;102182.13;5000014;28;20426;-65
2022/03/05 05:31:50;;;;;;;6.20;5.60;;;;;;;1.07;71.79;102185.63;4999773;28;20476;-66
2022/03/05 05:34:16;;;;;;;8.83;6.00;;;;;;;1.46;70.49;102185.75;4983722;28;20411;-65
2022/03/05 05:36:42;;;;;;;8.73;5.83;;;;;;;0.92;70.70;102182.84;4999945;28;20176;-66
2022/03/05 05:39:09;;;;;;;9.07;6.13;;;;;;;0.93;72.20;102181.16;4999976;28;20511;-66
2022/03/05 05:41:35;;;;;;;9.70;6.83;;;;;;;1.12;71.75;102183.38;4983292;28;20172;-65
2022/03/05 05:44:02;;;;;;;9.40;6.43;;;;;;;0.69;72.63;102193.09;4999947;28;20439;-66
2022/03/05 05:46:27;;;;;;;8.50;5.87;;;;;;;0.85;72.36;102198.56;4983267;28;20442;-65
2022/03/05 05:48:52;;;;;;;9.67;6.00;;;;;;;0.77;72.58;102192.91;4999870;28;20719;-65
2022/03/05 05:51:18;;;;;;;7.40;6.63;;;;;;;0.19;73.85;102197.19;4999267;28;20464;-65
2022/03/05 05:53:43;;;;;;;9.50;6.93;;;;;;;1.08;72.33;102189.06;4999452;28;20179;-66
2022/03/05 05:56:09;;;;;;;8.73;6.23;;;;;;;0.72;71.87;102193.31;4999867;28;20489;-67
2022/03/05 05:58:34;;;;;;;7.93;6.50;;;;;;;1.15;71.72;102206.69;4999250;28;20178;-66
2022/03/05 06:01:00;;;;;;;8.07;7.03;;;;;;;0.89;72.53;102208.28;4982261;28;20423;-65
2022/03/05 06:03:26;;;;;;;12.03;6.33;;;;;;;1.05;72.66;102205.16;4999828;28;20179;-66
2022/03/05 06:05:51;;;;;;;10.50;6.37;;;;;;;0.79;73.61;102209.28;4999207;28;20180;-65
2022/03/05 06:08:16;;;;;;;6.90;6.20;;;;;;;0.67;73.38;102214.41;4998914;28;20541;-65
2022/03/05 06:10:42;;;;;;;7.63;6.23;;;;;;;1.25;72.73;102214.28;4999541;28;20565;-65
2022/03/05 06:13:07;;;;;;;10.73;6.60;;;;;;;1.10;72.21;102216.66;4999383;28;20186;-65
2022/03/05 06:15:32;;;;;;;7.20;6.30;;;;;;;1.27;72.50;102211.81;4999246;28;20211;-65
2022/03/05 06:17:57;;;;;;;10.60;7.03;;;;;;;0.66;73.76;102224.56;4999181;28;20487;-65
2022/03/05 06:20:24;;;;;;;7.37;6.57;;;;;;;1.36;71.78;102222.75;4999185;28;20171;-65
2022/03/05 06:22:49;;;;;;;8.27;6.67;;;;;;;1.54;72.56;102220.59;4999069;28;20241;-66
2022/03/05 06:25:14;;;;;;;9.77;7.00;;;;;;;0.71;74.00;102233.50;4998821;28;20407;-67
2022/03/05 06:27:40;;;;;;;7.30;6.57;;;;;;;1.29;72.83;102231.69;4998731;28;20482;-67
2022/03/05 06:30:06;;;;;;;7.87;6.67;;;;;;;0.62;74.01;102233.72;4999080;28;20183;-65
2022/03/05 06:32:31;;;;;;;8.10;6.90;;;;;;;0.63;73.37;102230.38;4999156;28;20222;-66
2022/03/05 06:34:56;;;;;;;7.50;6.37;;;;;;;1.44;71.82;102226.75;4998653;28;20687;-66
2022/03/05 06:37:23;;;;;;;10.07;6.47;;;;;;;0.27;73.04;102234.56;4998447;28;20538;-66
2022/03/05 06:39:48;;;;;;;6.73;6.07;;;;;;;0.74;73.42;102233.72;4999244;28;20533;-65
2022/03/05 06:42:14;;;;;;;8.97;6.67;;;;;;;0.72;74.00;102226.69;4998585;28;20422;-66
2022/03/05 06:44:39;;;;;;;7.80;6.70;;;;;;;0.98;74.77;102228.59;4998640;28;20182;-66
2022/03/05 06:47:05;;;;;;;10.50;7.10;;;;;;;1.13;72.70;102224.56;4998963;28;20184;-66
2022/03/05 06:49:30;;;;;;;10.60;6.40;;;;;;;1.16;72.51;102221.31;4981545;28;20207;-65
2022/03/05 06:51:56;;;;;;;8.90;7.13;;;;;;;1.62;72.41;102213.41;4998364;28;20569;-65
2022/03/05 06:54:21;;;;;;;7.37;6.50;;;;;;;1.47;71.66;102221.81;4998677;28;20168;-66
2022/03/05 06:56:46;;;;;;;10.00;6.23;;;;;;;1.21;72.49;102229.38;4998676;28;20555;-66
2022/03/05 06:59:12;;;;;;;8.80;6.80;;;;;;;1.89;70.74;102214.44;4998464;28;20180;-66
2022/03/05 07:01:37;;;;;;;8.33;6.20;;;;;;;1.59;70.80;102215.78;4999028;28;20163;-65
2022/03/05 07:04:02;;;;;;;8.80;6.30;;;;;;;2.21;70.04;102220.88;4998443;28;20468;-66
2022/03/05 07:06:27;;;;;;;9.60;7.03;;;;;;;2.13;69.06;102222.94;4998593;28;20175;-66
2022/03/05 07:08:53;;;;;;;6.77;6.13;;;;;;;4.24;66.40;102205.28;4998113;28;20227;-67
2022/03/05 07:11:18;;;;;;;11.00;6.40;;;;;;;5.47;60.47;102201.84;4998254;28;20222;-65
2022/03/05 07:13:44;;;;;;;7.60;5.37;;;;;;;5.88;57.32;102199.69;4998748;28;20403;-66
2022/03/05 07:16:09;;;;;;;7.00;5.50;;;;;;;5.32;58.97;102204.50;4998268;28;20199;-66
2022/03/05 07:18:34;;;;;;;8.00;5.70;;;;;;;7.30;53.83;102196.34;4998106;28;20180;-66
2022/03/05 07:20:59;;;;;;;5.90;5.03;;;;;;;7.17;53.73;102192.28;4998496;28;20176;-66
2022/03/05 07:23:25;;;;;;;7.33;5.20;;;;;;;7.29;53.36;102202.31;4998096;28;20207;-66
2022/03/05 07:25:50;;;;;;;5.83;5.23;;;;;;;8.57;49.72;102197.56;4998121;28;20180;-65
2022/03/05 07:28:16;;;;;;;7.27;5.70;;;;;;;7.91;48.47;102199.94;4998532;28;20195;-67
2022/03/05 07:30:42;;;;;;;8.00;4.80;;;;;;;8.76;47.49;102199.22;4997947;28;20175;-67
2022/03/05 07:33:08;;;;;;;6.23;5.63;;;;;;;7.55;50.23;102206.16;4998135;28;20171;-66
2022/03/05 07:35:33;;;;;;;5.63;5.00;;;;;;;7.85;49.68;102207.47;4981410;28;20408;-66
2022/03/05 07:37:59;;;;;;;7.90;5.20;;;;;;;9.03;48.19;102206.34;4999131;28;20553;-67
2022/03/05 07:40:24;;;;;;;8.33;5.20;;;;;;;9.06;47.16;102214.28;5001661;28;20184;-66
2022/03/05 07:42:49;;;;;;;6.13;5.33;;;;;;;8.12;49.51;102218.16;5002198;28;20280;-66
2022/03/05 07:45:14;;;;;;;7.43;5.03;;;;;;;8.29;48.83;102211.09;5001751;28;20183;-67
2022/03/05 07:47:41;;;;;;;6.53;5.53;;;;;;;10.23;44.74;102207.31;5002162;28;20175;-67
2022/03/05 07:50:07;;;;;;;6.63;5.93;;;;;;;11.28;41.89;102200.31;5002421;28;20545;-67
2022/03/05 07:52:32;;;;;;;10.03;6.00;;;;;;;10.20;43.79;102211.53;5001600;28;20469;-66
2022/03/05 07:54:57;;;;;;;6.03;5.43;;;;;;;9.69;45.35;102208.00;5001770;28;20500;-67
2022/03/05 07:57:23;;;;;;;8.60;6.00;;;;;;;8.62;45.66;102221.19;5001933;28;20186;-67
2022/03/05 07:59:48;;;;;;;7.53;5.60;;;;;;;7.84;48.23;102216.06;5001610;28;20250;-67
2022/03/05 08:02:16;;;;;;;5.80;5.20;;;;;;;9.37;45.29;102215.47;5001374;28;20549;-66
2022/03/05 08:04:44;;;;;;;6.70;5.57;;;;;;;8.59;46.71;102213.22;5001726;28;20179;-67
2022/03/05 08:07:09;;;;;;;6.20;4.73;;;;;;;13.77;53.05;102197.78;4992487;28;20676;-61
2022/03/05 08:09:36;;;;;;;6.03;5.27;;;;;;;14.13;38.05;102192.38;4984263;28;20420;-65
2022/03/05 08:12:04;;;;;;;6.70;5.30;;;;;;;9.81;44.51;102212.78;5001424;28;20426;-66
2022/03/05 08:14:30;;;;;;;7.70;6.00;;;;;;;8.97;46.59;102218.22;5001046;28;20422;-65
2022/03/05 08:16:55;;;;;;;5.80;5.10;;;;;;;10.68;43.69;102213.19;5001170;28;20685;-65
2022/03/05 08:19:21;;;;;;;7.83;6.10;;;;;;;10.53;43.24;102214.44;5001244;28;20179;-66
2022/03/05 08:21:46;;;;;;;6.43;5.73;;;;;;;9.83;44.94;102220.66;5001005;28;20250;-65
2022/03/05 08:24:11;;;;;;;7.30;5.60;;;;;;;8.22;47.61;102227.25;5000921;28;20183;-66
2022/03/05 08:26:37;;;;;;;10.47;6.17;;;;;;;11.06;42.65;102213.53;5001317;28;20563;-65
2022/03/05 08:29:03;;;;;;;8.33;6.10;;;;;;;8.29;47.63;102239.66;4984032;28;20172;-66
2022/03/05 08:31:28;;;;;;;9.27;6.67;;;;;;;11.14;42.59;102227.69;5001107;28;20219;-65
2022/03/05 08:33:53;;;;;;;6.90;6.23;;;;;;;10.27;43.25;102232.66;5001180;28;20210;-65
2022/03/05 08:36:19;;;;;;;8.00;6.30;;;;;;;10.34;42.92;102228.53;5000605;28;20180;-65
2022/03/05 08:38:44;;;;;;;7.40;5.73;;;;;;;10.26;43.54;102228.25;5000856;28;20182;-65
2022/03/05 08:41:09;;;;;;;8.67;6.17;;;;;;;11.55;41.63;102220.22;5001141;28;20190;-65
2022/03/05 08:43:35;;;;;;;8.00;6.33;;;;;;;9.51;45.18;102233.34;5000718;28;20206;-65
2022/03/05 08:46:01;;;;;;;7.90;6.03;;;;;;;10.76;43.86;102223.03;5000428;28;20202;-66
2022/03/05 08:48:26;;;;;;;7.10;6.40;;;;;;;12.65;39.59;102210.16;5000574;28;20411;-69
2022/03/05 08:50:52;;;;;;;8.57;6.37;;;;;;;12.30;39.10;102212.75;5000802;28;20573;-69
2022/03/05 08:53:17;;;;;;;7.77;6.10;;;;;;;12.28;40.17;102207.47;5001013;28;20191;-68
2022/03/05 08:55:42;;;;;;;7.40;6.30;;;;;;;11.80;40.79;102213.97;5001236;28;20191;-68
2022/03/05 08:58:08;;;;;;;7.03;6.43;;;;;;;13.12;37.36;102205.16;5000453;28;20533;-69
2022/03/05 09:00:33;;;;;;;7.50;6.80;;;;;;;12.46;39.80;102204.44;5000280;28;20226;-69
2022/03/05 09:02:58;;;;;;;7.70;6.27;;;;;;;12.32;39.25;102200.59;5000562;28;20218;-67
2022/03/05 09:05:23;;;;;;;8.47;6.17;;;;;;;11.95;40.40;102205.72;5000956;28;20449;-68
2022/03/05 09:07:49;;;;;;;8.03;6.70;;;;;;;12.37;39.20;102204.22;4999911;28;20227;-68
2022/03/05 09:10:14;;;;;;;7.60;6.90;;;;;;;8.26;46.67;102224.84;5000297;28;20585;-67
2022/03/05 09:12:40;;;;;;;8.03;6.97;;;;;;;10.76;41.92;102214.31;4991555;28;20318;-68
2022/03/05 09:15:06;;;;;;;7.70;6.83;;;;;;;9.04;46.15;102231.56;4987137;28;20175;-66
2022/03/05 09:17:31;;;;;;;11.63;7.17;;;;;;;10.76;42.81;102214.31;4981000;28;20430;-68
2022/03/05 09:19:58;;;;;;;11.43;7.33;;;;;;;11.12;43.13;102206.78;4990263;28;20198;-67
2022/03/05 09:22:23;;;;;;;9.80;6.70;;;;;;;10.44;42.60;102211.50;5000125;28;20202;-68
2022/03/05 09:24:48;;;;;;;8.80;6.90;;;;;;;12.49;38.46;102202.75;5000061;28;20432;-68
2022/03/05 09:27:13;;;;;;;8.60;7.00;;;;;;;12.11;39.29;102206.16;4999685;28;20199;-68
2022/03/05 09:29:39;;;;;;;7.37;6.67;;;;;;;13.65;36.80;102201.03;4980691;28;20180;-69
2022/03/05 09:32:05;;;;;;;8.47;7.57;;;;;;;12.58;38.54;102202.97;4980596;28;20577;-67
2022/03/05 09:34:30;;;;;;;10.10;7.80;;;;;;;13.39;37.12;102193.53;4980295;28;20180;-67
2022/03/05 09:36:56;;;;;;;8.10;7.30;;;;;;;13.38;36.76;102189.16;4980460;28;20816;-67
2022/03/05 09:39:21;;;;;;;8.00;7.20;;;;;;;12.65;37.67;102189.22;4980720;28;20176;-70
2022/03/05 09:41:46;;;;;;;9.77;7.40;;;;;;;13.50;36.27;102182.41;4980154;28;20194;-69
2022/03/05 09:44:12;;;;;;;9.70;7.90;;;;;;;13.21;36.57;102188.75;4980089;28;20202;-68
2022/03/05 09:46:37;;;;;;;8.80;7.73;;;;;;;12.66;38.29;102190.97;4998607;28;20183;-68
2022/03/05 09:49:04;;;;;;;8.27;7.47;;;;;;;10.71;40.85;102195.00;4999361;28;20194;-67
2022/03/05 09:51:29;;;;;;;9.60;8.40;;;;;;;13.03;36.85;102191.84;4999585;28;20207;-69
2022/03/05 09:53:55;;;;;;;11.87;7.90;;;;;;;13.44;35.52;102194.50;4999722;28;20816;-68
2022/03/05 09:56:21;;;;;;;8.87;8.00;;;;;;;11.76;38.74;102192.97;4999530;28;20422;-67
2022/03/05 09:58:48;;;;;;;9.43;8.10;;;;;;;13.77;35.24;102188.22;4999206;28;20180;-68
2022/03/05 10:01:14;;;;;;;10.73;8.77;;;;;;;12.27;38.08;102192.63;4998976;28;20168;-68
2022/03/05 10:03:46;;;;;;;8.87;7.90;;;;;;;13.87;35.70;102184.03;4999349;28;20411;-68
2022/03/05 10:06:22;;;;;;;9.13;8.13;;;;;;;10.60;41.63;102197.28;4999052;28;20427;-69
2022/03/05 10:08:51;;;;;;;10.63;8.50;;;;;;;12.84;36.85;102180.06;4998959;28;20466;-69
2022/03/05 10:11:16;;;;;;;8.80;8.00;;;;;;;12.55;37.01;102187.22;4998976;28;20462;-68
2022/03/05 10:13:42;;;;;;;10.43;9.23;;;;;;;9.59;41.27;102200.66;4998911;28;20442;-67
2022/03/05 10:16:29;;;;;;;9.43;8.53;;;;;;;12.85;37.27;102187.06;4979568;28;20263;-70
2022/03/05 10:18:55;;;;;;;10.37;9.37;;;;;;;12.64;36.92;102182.22;4982813;28;20183;-68
2022/03/05 10:21:27;;;;;;;9.27;8.37;;;;;;;13.44;35.97;102173.56;4998873;28;20517;-68
2022/03/05 10:24:04;;;;;;;12.47;8.87;;;;;;;13.51;35.01;102179.81;4999030;28;20715;-68
2022/03/05 10:26:51;;;;;;;12.43;9.20;;;;;;;10.44;40.46;102186.34;4998866;28;20427;-68
2022/03/05 10:29:23;;;;;;;10.80;9.40;;;;;;;8.41;43.77;102196.00;4998657;28;20429;-66
2022/03/05 10:31:57;;;;;;;10.80;9.70;;;;;;;9.17;43.50;102193.00;4998876;28;20557;-68
2022/03/05 10:34:22;;;;;;;10.63;9.30;;;;;;;11.36;38.47;102174.41;4982235;28;20809;-68
2022/03/05 10:36:58;;;;;;;11.70;9.80;;;;;;;8.31;43.44;102196.47;4998749;28;20401;-67
2022/03/05 10:39:25;;;;;;;9.50;8.60;;;;;;;9.39;41.77;102192.09;4981545;28;20171;-68
2022/03/05 10:41:52;;;;;;;11.40;9.17;;;;;;;11.13;37.79;102178.94;4998792;28;20464;-67
2022/03/05 10:44:18;;;;;;;10.20;9.00;;;;;;;11.09;37.94;102171.84;4998871;28;20466;-68
2022/03/05 10:46:46;;;;;;;10.70;9.70;;;;;;;10.39;37.96;102187.00;4998745;28;20415;-67
2022/03/05 10:49:25;;;;;;;11.80;9.80;;;;;;;11.34;36.64;102173.47;4998979;28;20472;-67
2022/03/05 10:51:58;;;;;;;11.80;8.90;;;;;;;11.03;38.16;102185.59;4998763;28;20462;-68
2022/03/05 10:54:39;;;;;;;9.40;8.40;;;;;;;10.06;38.46;102193.69;4998806;28;20397;-67
2022/03/05 10:57:22;;;;;;;9.90;8.90;;;;;;;9.04;42.16;102191.66;4998605;28;20480;-67
2022/03/05 10:59:55;;;;;;;11.20;9.30;;;;;;;9.56;40.50;102184.94;4998707;28;20450;-66
2022/03/05 11:02:22;;;;;;;10.33;8.03;;;;;;;11.58;37.16;102170.69;4981984;28;20510;-67
2022/03/05 11:04:49;;;;;;;8.40;7.60;;;;;;;11.77;36.29;102163.34;4998502;28;20450;-66
2022/03/05 11:07:20;;;;;;;10.00;8.10;;;;;;;10.77;38.73;102161.28;4981291;28;20394;-67
2022/03/05 11:09:47;;;;;;;10.43;9.47;;;;;;;8.62;41.82;102179.59;4982490;28;20804;-66
2022/03/05 11:12:17;;;;;;;10.07;8.83;;;;;;;8.70;42.77;102177.28;5000376;28;20748;-68
2022/03/05 11:14:50;;;;;;;10.27;9.27;;;;;;;9.13;41.98;102158.16;4993974;28;20445;-68
2022/03/05 11:17:16;;;;;;;9.80;8.80;;;;;;;8.58;42.36;102172.50;4982942;28;20466;-67
2022/03/05 11:19:42;;;;;;;11.27;9.47;;;;;;;9.32;40.04;102162.34;4992829;28;20740;-66
2022/03/05 11:22:08;;;;;;;9.07;8.13;;;;;;;7.78;42.50;102180.34;5002267;28;20168;-67
2022/03/05 11:24:34;;;;;;;10.57;9.47;;;;;;;8.45;43.00;102170.19;4985510;28;20399;-68
2022/03/05 11:27:00;;;;;;;12.60;10.03;;;;;;;8.31;43.62;102166.97;5002339;28;20187;-66